カラカス の空港の天気 - METARとTAF

シモン・ボリバー空港(バルガス) ( SVMI / CCS ) - ベネズエラ バルガス州、Maiquetia (カラカス近郊)
飛行場実況気象(Metar)
観測時間08/22 12:00 VET (08/22 16:00 UTC)
風向・風速北 2m/s
視程10km以上
天気現象
少しの雲 雲底高度 490m
気温29℃
湿度70%
気圧1012hPa
METARSVMI 221600Z 36004KT 9999 FEW016 29/23 Q1012
過去の天気等 Google飛行場航空写真 Wunderground天気予報

過去48時間のMETAR

飛行場予報(TAF)
発表時間: 8/22 06:00 VET (8/22 10:00 UTC)
予報対象時間: 22日8時 VET ~ 23日8時 VET
風向・風速北東 2m/s
視程10km以上
全天の4割程度の雲 雲底高度 490m
22日12時 VET ~ 22日15時 VET に徐々に
風向・風速静穏
視程10km以上
全天の4割程度の雲 雲底高度 490m
TAF SVMI 221000Z 2212/2312 05004KT 9999 SCT016 TX33/18Z TN25/08Z
BECMG 2216/2219 00000KT 9999 SCT016